Gold Lake Estates, Arkansas
Current Conditions -  °F | °C
As of 1:58 AM on Tuesday 27 Jan 2015 (Local Time) from KLRF Reporting Station
Clear Clear  
Wind Chill: 42°   Ceiling: Unl
Heat Index: 42°   Visibility: 10mi
Dew Point: 34°   Wind: 3mph
Humidity: 73%   Direction: 270°W
Pressure: 30.01"   Gusts: NA
Location:  35.0822°N, 92.366°W
Report Text: KLRF 270758Z AUTO 27003KT 10SM CLR 06/01 A3001 RMK AO2 SLP166 T00570012
Loading
Personal Weather Stations






























Interactive Weather Map New forecast layout! Learn more

10-Day Weather Forecast

Advertisements
Track Severe Weather on mobile